Time;durP1;ratioP1;P1;durP2;ratioP2;P2;SDS_P1;SDS_P2;PMS_P1;PMS_P2;Temp;Humidity;BMP_temperature;BMP_pressure;BME280_temperature;BME280_humidity;BME280_pressure;Samples;Min_cycle;Max_cycle;Signal;HPM_P1;HPM_P2
2021/08/10 00:02:20;;;;;;;3.77;2.83;;;16.90;99.90;;;;;;5015304;28;20548;-50
2021/08/10 00:04:47;;;;;;;3.40;3.10;;;17.00;99.90;;;;;;5015782;28;20450;-53
2021/08/10 00:07:14;;;;;;;4.20;2.70;;;17.00;99.90;;;;;;5014848;28;20474;-46
2021/08/10 00:09:42;;;;;;;5.17;2.53;;;17.00;99.90;;;;;;5015106;28;20426;-52
2021/08/10 00:12:09;;;;;;;3.47;2.63;;;16.90;99.90;;;;;;5015606;28;20442;-53
2021/08/10 00:14:36;;;;;;;3.70;2.80;;;16.90;99.90;;;;;;5015558;28;20450;-50
2021/08/10 00:17:03;;;;;;;5.33;3.43;;;16.90;99.90;;;;;;5015197;28;20473;-47
2021/08/10 00:19:30;;;;;;;5.33;3.60;;;16.90;99.90;;;;;;5014880;28;20487;-52
2021/08/10 00:21:57;;;;;;;3.37;2.90;;;16.90;99.90;;;;;;5014961;28;20449;-52
2021/08/10 00:24:23;;;;;;;5.50;3.17;;;16.90;99.90;;;;;;5015050;28;20489;-51
2021/08/10 00:26:51;;;;;;;3.37;2.43;;;16.90;99.90;;;;;;5015952;28;20425;-52
2021/08/10 00:29:18;;;;;;;3.30;3.00;;;16.80;99.90;;;;;;5015652;28;20425;-51
2021/08/10 00:31:45;;;;;;;5.63;3.30;;;16.80;99.90;;;;;;5015130;28;20477;-54
2021/08/10 00:34:11;;;;;;;3.63;3.20;;;16.80;99.90;;;;;;5015749;28;20442;-52
2021/08/10 00:36:38;;;;;;;6.30;3.43;;;16.80;99.90;;;;;;5015482;28;20450;-52
2021/08/10 00:39:05;;;;;;;3.03;2.80;;;16.80;99.90;;;;;;5015226;28;20480;-51
2021/08/10 00:41:32;;;;;;;5.03;2.77;;;16.80;99.90;;;;;;5014803;28;20493;-53
2021/08/10 00:44:00;;;;;;;4.30;3.47;;;16.80;99.90;;;;;;5014874;28;20481;-51
2021/08/10 00:46:27;;;;;;;5.20;2.80;;;16.70;99.90;;;;;;5015110;28;20441;-53
2021/08/10 00:48:53;;;;;;;3.57;2.53;;;16.80;99.90;;;;;;5014822;28;20446;-53
2021/08/10 00:51:20;;;;;;;3.53;3.23;;;16.80;99.90;;;;;;5014784;28;20825;-51
2021/08/10 00:53:47;;;;;;;3.37;3.00;;;16.80;99.90;;;;;;5015417;28;20537;-49
2021/08/10 00:56:14;;;;;;;4.20;3.20;;;16.80;99.90;;;;;;5015563;28;20441;-54
2021/08/10 00:58:40;;;;;;;2.90;2.60;;;16.80;99.90;;;;;;5015301;28;20457;-49
2021/08/10 01:01:10;;;;;;;7.63;2.70;;;16.80;99.90;;;;;;5015595;28;20450;-53
2021/08/10 01:03:37;;;;;;;4.13;3.07;;;16.80;99.90;;;;;;5015234;28;20482;-50
2021/08/10 01:06:08;;;;;;;3.30;3.00;;;16.80;99.90;;;;;;5014806;28;20544;-47
2021/08/10 01:08:49;;;;;;;5.33;3.17;;;16.80;99.90;;;;;;5015021;28;20430;-49
2021/08/10 01:11:19;;;;;;;5.07;2.83;;;16.80;99.90;;;;;;5014681;28;20423;-52
2021/08/10 01:13:53;;;;;;;3.67;2.57;;;16.80;99.90;;;;;;5014559;28;20450;-51
2021/08/10 01:16:30;;;;;;;5.50;3.27;;;16.70;99.90;;;;;;5014389;28;20442;-52
2021/08/10 01:19:03;;;;;;;5.47;2.67;;;16.70;99.90;;;;;;5014324;28;20431;-50
2021/08/10 01:21:35;;;;;;;7.10;3.53;;;16.70;99.90;;;;;;5014475;28;20461;-54
2021/08/10 01:24:06;;;;;;;6.90;3.87;;;16.70;99.90;;;;;;5014744;28;20485;-49
2021/08/10 01:26:53;;;;;;;5.27;3.63;;;16.60;99.90;;;;;;5014952;28;20478;-52
2021/08/10 01:29:24;;;;;;;6.40;3.17;;;16.60;99.90;;;;;;5014255;28;20431;-54
2021/08/10 01:31:53;;;;;;;3.90;3.10;;;16.60;99.90;;;;;;5014432;28;20438;-50
2021/08/10 01:34:26;;;;;;;3.40;3.00;;;16.60;99.90;;;;;;5014341;28;20426;-51
2021/08/10 01:36:56;;;;;;;8.10;3.10;;;16.60;99.90;;;;;;5014613;28;20537;-50
2021/08/10 01:39:25;;;;;;;4.80;3.20;;;16.60;99.90;;;;;;5014479;28;20426;-52
2021/08/10 01:41:53;;;;;;;7.07;3.67;;;16.60;99.90;;;;;;5014894;28;20446;-54
2021/08/10 01:44:25;;;;;;;4.40;3.80;;;16.60;99.90;;;;;;5014528;28;20509;-51
2021/08/10 01:46:53;;;;;;;5.53;3.80;;;16.60;99.90;;;;;;5014627;28;20445;-50
2021/08/10 01:49:21;;;;;;;4.80;3.93;;;16.50;99.90;;;;;;5014858;28;20473;-52
2021/08/10 01:51:49;;;;;;;3.90;3.30;;;16.50;99.90;;;;;;5015012;28;20458;-50
2021/08/10 01:54:16;;;;;;;4.40;3.50;;;16.50;99.90;;;;;;5014968;28;20470;-47
2021/08/10 01:56:43;;;;;;;5.10;3.00;;;16.50;99.90;;;;;;5015333;28;20476;-47
2021/08/10 01:59:10;;;;;;;5.67;3.40;;;16.50;99.90;;;;;;5015417;28;20441;-49
2021/08/10 02:01:41;;;;;;;4.00;3.30;;;16.50;99.90;;;;;;5014820;28;20446;-50
2021/08/10 02:04:09;;;;;;;5.40;4.03;;;16.40;99.90;;;;;;5014658;28;20484;-48
2021/08/10 02:06:38;;;;;;;5.93;4.20;;;16.40;99.90;;;;;;5014003;28;20469;-46
2021/08/10 02:09:06;;;;;;;3.90;3.50;;;16.30;99.90;;;;;;5014906;28;20446;-48
2021/08/10 02:11:34;;;;;;;4.77;3.93;;;16.30;99.90;;;;;;5014905;28;20473;-51
2021/08/10 02:14:02;;;;;;;4.10;3.53;;;16.30;99.90;;;;;;5015171;28;20422;-51
2021/08/10 02:16:33;;;;;;;4.97;3.33;;;16.30;99.90;;;;;;5014876;28;20445;-48
2021/08/10 02:19:00;;;;;;;7.57;4.00;;;16.20;99.90;;;;;;5015049;28;20431;-51
2021/08/10 02:21:39;;;;;;;4.93;3.70;;;16.30;99.90;;;;;;5014675;28;20446;-51
2021/08/10 02:24:09;;;;;;;7.17;4.23;;;16.30;99.90;;;;;;5016395;28;20533;-49
2021/08/10 02:26:44;;;;;;;10.73;3.23;;;16.30;99.90;;;;;;5017940;28;20454;-49
2021/08/10 02:29:12;;;;;;;5.63;3.50;;;16.20;99.90;;;;;;5018459;28;20430;-49
2021/08/10 02:31:40;;;;;;;4.20;3.67;;;16.20;99.90;;;;;;5018320;28;20422;-49
2021/08/10 02:34:07;;;;;;;5.90;3.57;;;16.20;99.90;;;;;;5018740;28;20445;-51
2021/08/10 02:36:36;;;;;;;6.20;3.80;;;16.30;99.90;;;;;;5018055;28;20461;-50
2021/08/10 02:39:09;;;;;;;4.20;3.80;;;16.30;99.90;;;;;;5018844;28;20442;-49
2021/08/10 02:41:40;;;;;;;8.73;3.60;;;16.30;99.90;;;;;;5018673;28;20462;-53
2021/08/10 02:44:09;;;;;;;5.73;3.80;;;16.30;99.90;;;;;;5018945;28;20457;-50
2021/08/10 02:46:36;;;;;;;3.90;2.90;;;16.30;99.90;;;;;;5018932;28;20464;-50
2021/08/10 02:49:03;;;;;;;5.97;3.90;;;16.30;99.90;;;;;;5019203;28;20526;-53
2021/08/10 02:51:30;;;;;;;7.10;4.10;;;16.30;99.90;;;;;;5018581;28;20441;-53
2021/08/10 02:53:58;;;;;;;6.70;3.97;;;16.20;99.90;;;;;;5017939;28;20438;-52
2021/08/10 02:56:28;;;;;;;7.33;4.50;;;16.20;99.90;;;;;;5017759;28;20461;-53
2021/08/10 02:59:01;;;;;;;10.33;3.63;;;16.20;99.90;;;;;;5017739;28;20442;-51
2021/08/10 03:01:33;;;;;;;5.33;3.80;;;16.20;99.90;;;;;;5017763;28;20438;-51
2021/08/10 03:04:02;;;;;;;4.83;4.00;;;16.20;99.90;;;;;;5017603;28;20826;-53
2021/08/10 03:06:30;;;;;;;8.90;5.20;;;16.10;99.90;;;;;;5017163;28;20457;-51
2021/08/10 03:09:00;;;;;;;4.73;4.03;;;16.20;99.90;;;;;;5017419;28;20469;-53
2021/08/10 03:11:27;;;;;;;4.77;4.23;;;16.20;99.90;;;;;;5017690;28;20446;-53
2021/08/10 03:13:55;;;;;;;5.50;4.07;;;16.20;99.90;;;;;;5017262;28;20438;-52
2021/08/10 03:16:24;;;;;;;5.03;4.53;;;16.10;99.90;;;;;;5017695;28;20972;-51
2021/08/10 03:18:53;;;;;;;6.57;4.03;;;16.10;99.90;;;;;;5016994;28;20442;-51
2021/08/10 03:21:21;;;;;;;7.53;4.37;;;16.10;99.90;;;;;;5017693;28;20525;-51
2021/08/10 03:23:50;;;;;;;6.53;4.03;;;16.10;99.90;;;;;;5017452;28;20508;-53
2021/08/10 03:26:21;;;;;;;6.17;4.20;;;16.10;99.90;;;;;;5017380;28;20473;-51
2021/08/10 03:28:49;;;;;;;7.20;4.50;;;16.00;99.90;;;;;;5017677;28;20445;-53
2021/08/10 03:31:16;;;;;;;5.50;4.50;;;16.00;99.90;;;;;;5018278;28;20446;-53
2021/08/10 03:33:44;;;;;;;7.57;4.40;;;16.00;99.90;;;;;;5017227;28;20446;-52
2021/08/10 03:36:15;;;;;;;6.60;4.40;;;16.00;99.90;;;;;;5016661;28;20473;-53
2021/08/10 03:38:45;;;;;;;8.37;4.47;;;16.00;99.90;;;;;;5017528;28;20807;-52
2021/08/10 03:41:17;;;;;;;4.67;4.17;;;15.90;99.90;;;;;;5016975;28;20481;-51
2021/08/10 03:43:46;;;;;;;5.83;4.70;;;16.00;99.90;;;;;;5017234;28;20462;-54
2021/08/10 03:46:12;;;;;;;4.33;3.93;;;16.00;99.90;;;;;;5016680;28;20473;-51
2021/08/10 03:48:43;;;;;;;8.97;4.27;;;16.00;99.90;;;;;;5017334;28;20505;-53
2021/08/10 03:51:11;;;;;;;9.63;4.53;;;16.00;99.90;;;;;;5016809;28;20430;-51
2021/08/10 03:53:39;;;;;;;7.93;5.00;;;15.90;99.90;;;;;;5016995;28;20442;-51
2021/08/10 03:56:07;;;;;;;6.03;4.23;;;15.90;99.90;;;;;;5017073;28;20461;-54
2021/08/10 03:58:38;;;;;;;6.20;4.70;;;15.90;99.90;;;;;;5017238;28;20446;-50
2021/08/10 04:01:08;;;;;;;7.97;4.50;;;15.90;99.90;;;;;;5017175;28;20505;-49
2021/08/10 04:03:36;;;;;;;5.83;4.20;;;15.90;99.90;;;;;;5016977;28;20490;-52
2021/08/10 04:06:06;;;;;;;4.73;4.20;;;15.90;99.90;;;;;;5016470;28;20489;-51
2021/08/10 04:08:34;;;;;;;6.10;4.17;;;15.90;99.90;;;;;;5017581;28;20450;-54
2021/08/10 04:11:01;;;;;;;4.53;3.67;;;15.90;99.90;;;;;;5017406;28;20469;-49
2021/08/10 04:13:29;;;;;;;5.87;3.43;;;15.90;99.90;;;;;;5016954;28;20470;-52
2021/08/10 04:15:59;;;;;;;5.60;3.93;;;15.90;99.90;;;;;;5016944;28;20468;-53
2021/08/10 04:18:30;;;;;;;4.90;3.97;;;15.90;99.90;;;;;;5017483;28;20508;-52
2021/08/10 04:20:56;;;;;;;5.80;4.03;;;15.90;99.90;;;;;;5016484;28;20426;-50
2021/08/10 04:23:23;;;;;;;6.83;4.50;;;15.90;99.90;;;;;;5016158;28;20442;-53
2021/08/10 04:25:50;;;;;;;7.77;4.50;;;16.00;99.90;;;;;;5016530;28;20450;-54
2021/08/10 04:28:17;;;;;;;5.17;4.60;;;15.90;99.90;;;;;;5016869;28;20450;-56
2021/08/10 04:30:45;;;;;;;5.50;4.20;;;16.00;99.90;;;;;;5016557;28;20477;-52
2021/08/10 04:33:12;;;;;;;5.97;4.27;;;16.00;99.90;;;;;;5016708;28;20450;-51
2021/08/10 04:35:41;;;;;;;7.70;4.10;;;15.90;99.90;;;;;;5016564;28;20493;-52
2021/08/10 04:38:07;;;;;;;4.90;4.03;;;15.90;99.90;;;;;;5017097;28;20445;-51
2021/08/10 04:40:36;;;;;;;4.53;4.00;;;15.90;99.90;;;;;;5016448;28;20477;-50
2021/08/10 04:43:03;;;;;;;5.90;4.30;;;15.90;99.90;;;;;;5016746;28;20426;-48
2021/08/10 04:45:30;;;;;;;4.70;4.20;;;15.90;99.90;;;;;;5017179;28;20505;-50
2021/08/10 04:47:58;;;;;;;5.70;3.83;;;15.90;99.90;;;;;;5015373;28;20426;-50
2021/08/10 04:50:25;;;;;;;5.40;4.30;;;15.90;99.90;;;;;;5016971;28;20473;-51
2021/08/10 04:52:58;;;;;;;5.33;4.10;;;15.90;99.90;;;;;;5017108;28;20443;-48
2021/08/10 04:55:25;;;;;;;9.90;4.43;;;15.90;99.90;;;;;;5018176;28;20453;-45
2021/08/10 04:57:53;;;;;;;10.63;4.10;;;15.90;99.90;;;;;;5018442;28;20461;-42
2021/08/10 05:00:19;;;;;;;4.60;3.93;;;16.00;99.90;;;;;;5010414;28;20489;-45
2021/08/10 05:02:46;;;;;;;6.27;4.87;;;16.00;99.90;;;;;;4996505;28;20446;-43
2021/08/10 05:05:13;;;;;;;7.13;3.83;;;16.00;99.90;;;;;;4996928;28;20780;-42
2021/08/10 05:07:40;;;;;;;7.73;4.33;;;16.10;99.90;;;;;;4996805;28;20477;-42
2021/08/10 05:10:08;;;;;;;7.50;4.07;;;16.10;99.90;;;;;;4997999;28;20739;-45
2021/08/10 05:12:36;;;;;;;6.33;4.93;;;16.10;99.90;;;;;;4998668;28;20508;-48
2021/08/10 05:15:03;;;;;;;5.33;3.83;;;16.10;99.90;;;;;;4997613;28;20458;-42
2021/08/10 05:17:30;;;;;;;7.10;3.97;;;16.10;99.90;;;;;;4998168;28;20442;-45
2021/08/10 05:19:59;;;;;;;6.13;4.30;;;16.10;99.90;;;;;;4998007;28;20480;-44
2021/08/10 05:22:26;;;;;;;8.70;5.17;;;16.10;99.90;;;;;;4998144;28;20957;-43
2021/08/10 05:24:53;;;;;;;5.53;4.30;;;16.20;99.90;;;;;;4997990;28;20560;-42
2021/08/10 05:27:23;;;;;;;4.70;3.97;;;16.20;99.90;;;;;;4997978;28;20480;-42
2021/08/10 05:29:49;;;;;;;5.80;3.80;;;16.20;99.90;;;;;;4997473;28;20446;-47
2021/08/10 05:32:16;;;;;;;7.37;4.10;;;16.20;99.90;;;;;;4997627;28;20453;-42
2021/08/10 05:34:43;;;;;;;7.90;4.50;;;16.20;99.90;;;;;;4997029;28;20465;-43
2021/08/10 05:37:10;;;;;;;7.33;3.60;;;16.30;99.90;;;;;;4997643;28;20442;-45
2021/08/10 05:39:36;;;;;;;6.20;4.00;;;16.30;99.90;;;;;;4997204;28;20461;-48
2021/08/10 05:42:03;;;;;;;7.67;4.40;;;16.40;99.90;;;;;;4997772;28;20461;-45
2021/08/10 05:44:31;;;;;;;5.83;4.27;;;16.40;99.90;;;;;;4998030;28;20473;-43
2021/08/10 05:46:58;;;;;;;7.73;6.33;;;16.50;99.90;;;;;;4998190;28;20450;-44
2021/08/10 05:49:25;;;;;;;6.03;4.87;;;16.50;99.90;;;;;;4998178;28;20469;-47
2021/08/10 05:51:51;;;;;;;5.77;4.30;;;16.60;99.90;;;;;;4997224;28;20458;-45
2021/08/10 05:54:18;;;;;;;7.17;3.97;;;16.70;99.90;;;;;;4997413;28;20586;-42
2021/08/10 05:56:46;;;;;;;7.03;4.77;;;16.70;99.90;;;;;;4997442;28;20512;-43
2021/08/10 05:59:13;;;;;;;5.13;4.10;;;16.70;99.90;;;;;;4996253;28;20450;-48
2021/08/10 06:01:41;;;;;;;11.43;4.73;;;16.80;99.90;;;;;;4997852;28;20446;-46
2021/08/10 06:04:08;;;;;;;6.13;4.20;;;16.80;99.90;;;;;;4997770;28;20482;-44
2021/08/10 06:06:35;;;;;;;5.33;4.43;;;16.80;99.90;;;;;;4997662;28;20470;-45
2021/08/10 06:09:02;;;;;;;5.70;3.83;;;16.90;99.90;;;;;;4997164;28;20446;-44
2021/08/10 06:11:28;;;;;;;7.43;4.20;;;16.90;99.90;;;;;;5012849;28;20450;-43
2021/08/10 06:13:56;;;;;;;5.00;4.47;;;17.00;99.90;;;;;;5017348;28;20830;-42
2021/08/10 06:16:22;;;;;;;6.60;4.10;;;17.10;99.90;;;;;;5010149;28;20485;-43
2021/08/10 06:18:51;;;;;;;11.93;5.00;;;17.30;99.90;;;;;;4998109;28;20449;-42
2021/08/10 06:21:18;;;;;;;6.40;4.57;;;17.30;99.90;;;;;;5001919;28;20449;-42
2021/08/10 06:23:45;;;;;;;7.33;4.90;;;17.40;99.90;;;;;;5016246;28;20453;-45
2021/08/10 06:26:12;;;;;;;4.07;3.67;;;17.50;99.90;;;;;;5020252;28;20870;-45
2021/08/10 06:28:39;;;;;;;4.80;4.17;;;17.50;99.90;;;;;;5013147;28;20459;-44
2021/08/10 06:31:06;;;;;;;6.20;5.00;;;17.70;99.90;;;;;;4995571;28;20508;-50
2021/08/10 06:33:33;;;;;;;8.83;5.67;;;17.90;99.90;;;;;;4995184;28;20508;-46
2021/08/10 06:36:01;;;;;;;5.40;4.90;;;18.00;99.90;;;;;;5011684;28;20433;-43
2021/08/10 06:38:28;;;;;;;8.83;5.50;;;18.30;99.90;;;;;;5014515;28;20476;-45
2021/08/10 06:40:54;;;;;;;8.47;5.73;;;18.50;99.90;;;;;;5008635;28;20511;-42
2021/08/10 06:43:21;;;;;;;14.87;4.50;;;18.60;99.90;;;;;;5014316;28;20925;-43
2021/08/10 06:45:48;;;;;;;6.60;4.60;;;18.80;99.90;;;;;;5011693;28;20477;-40
2021/08/10 06:48:15;;;;;;;9.43;4.70;;;19.00;99.90;;;;;;5014270;28;20832;-40
2021/08/10 06:50:42;;;;;;;6.43;4.70;;;19.10;99.90;;;;;;5014780;28;20535;-43
2021/08/10 06:53:10;;;;;;;5.80;4.00;;;19.10;99.90;;;;;;5015331;28;20438;-40
2021/08/10 06:55:37;;;;;;;5.27;4.77;;;19.20;99.90;;;;;;5016114;28;20515;-44
2021/08/10 06:58:04;;;;;;;4.77;4.27;;;19.20;99.90;;;;;;5019140;28;20461;-42
2021/08/10 07:00:31;;;;;;;5.67;5.07;;;19.40;99.90;;;;;;5016716;28;20744;-46
2021/08/10 07:02:57;;;;;;;10.73;4.83;;;19.60;99.90;;;;;;5016651;28;20579;-45
2021/08/10 07:05:26;;;;;;;10.77;4.37;;;19.80;99.90;;;;;;5016324;28;20868;-42
2021/08/10 07:07:52;;;;;;;7.07;4.27;;;20.00;99.90;;;;;;5015085;28;20547;-42
2021/08/10 07:10:20;;;;;;;7.43;4.77;;;20.20;99.90;;;;;;5014813;28;20440;-46
2021/08/10 07:12:47;;;;;;;4.90;4.10;;;20.30;99.90;;;;;;5017061;28;20867;-42
2021/08/10 07:15:14;;;;;;;5.00;3.47;;;20.40;99.90;;;;;;5017019;28;20541;-43
2021/08/10 07:17:43;;;;;;;7.50;4.10;;;20.40;99.90;;;;;;5017661;28;20448;-44
2021/08/10 07:20:11;;;;;;;5.23;4.33;;;20.60;99.90;;;;;;5017551;28;20829;-44
2021/08/10 07:22:38;;;;;;;7.90;4.27;;;20.60;99.90;;;;;;5017140;28;20457;-47
2021/08/10 07:25:05;;;;;;;5.63;4.27;;;20.70;99.90;;;;;;5016905;28;20492;-42
2021/08/10 07:27:33;;;;;;;7.43;3.90;;;20.60;99.90;;;;;;5018795;28;20463;-46
2021/08/10 07:30:01;;;;;;;4.37;3.50;;;20.60;99.90;;;;;;5019286;28;20449;-42
2021/08/10 07:32:28;;;;;;;5.87;3.73;;;20.60;99.90;;;;;;5019191;28;20461;-45
2021/08/10 07:34:54;;;;;;;4.50;3.70;;;20.50;99.90;;;;;;5019695;28;20453;-43
2021/08/10 07:37:21;;;;;;;6.97;3.70;;;20.40;99.90;;;;;;5023576;28;20444;-47
2021/08/10 07:39:48;;;;;;;4.27;3.63;;;20.30;99.90;;;;;;5038779;28;20750;-45
2021/08/10 07:42:15;;;;;;;4.40;3.00;;;20.40;99.90;;;;;;5038715;28;20463;-43
2021/08/10 07:44:43;;;;;;;6.47;2.90;;;20.60;99.90;;;;;;5038697;28;20491;-43
2021/08/10 07:47:09;;;;;;;3.03;2.73;;;20.70;99.90;;;;;;5038652;28;20449;-42
2021/08/10 07:49:37;;;;;;;4.63;3.60;;;20.90;99.90;;;;;;5036451;28;20459;-42
2021/08/10 07:52:05;;;;;;;4.77;3.40;;;21.10;99.90;;;;;;5036141;28;20479;-48
2021/08/10 07:54:32;;;;;;;5.70;3.70;;;21.20;99.90;;;;;;5036050;28;20475;-43
2021/08/10 07:56:59;;;;;;;3.90;2.97;;;21.30;99.90;;;;;;5036319;28;20448;-43
2021/08/10 07:59:26;;;;;;;3.77;3.20;;;21.40;99.90;;;;;;5035840;28;20448;-45
2021/08/10 08:01:56;;;;;;;6.03;3.37;;;21.40;99.90;;;;;;5036077;28;20433;-45
2021/08/10 08:04:23;;;;;;;9.30;2.77;;;21.40;99.90;;;;;;5036120;28;20448;-45
2021/08/10 08:06:50;;;;;;;3.63;3.10;;;21.50;99.90;;;;;;5017712;28;20496;-42
2021/08/10 08:09:16;;;;;;;4.67;3.10;;;21.50;99.90;;;;;;5016383;28;20530;-45
2021/08/10 08:11:43;;;;;;;4.70;3.40;;;21.50;99.90;;;;;;5016121;28;20481;-45
2021/08/10 08:14:10;;;;;;;4.67;4.03;;;21.50;99.90;;;;;;5016016;28;20772;-45
2021/08/10 08:16:37;;;;;;;4.83;3.07;;;21.50;99.90;;;;;;5016147;28;20445;-46
2021/08/10 08:19:05;;;;;;;6.60;3.40;;;21.40;99.90;;;;;;5016009;28;20515;-42
2021/08/10 08:21:32;;;;;;;5.33;3.50;;;21.30;99.90;;;;;;5015873;28;20448;-45
2021/08/10 08:24:00;;;;;;;8.00;4.40;;;21.20;99.90;;;;;;5015609;28;20461;-43
2021/08/10 08:26:27;;;;;;;5.33;2.70;;;21.00;99.90;;;;;;5015584;28;20576;-48
2021/08/10 08:28:53;;;;;;;15.63;3.43;;;21.00;99.90;;;;;;5015657;28;20961;-47
2021/08/10 08:31:20;;;;;;;5.03;3.33;;;21.00;99.90;;;;;;5015704;28;20461;-43
2021/08/10 08:33:47;;;;;;;4.63;2.63;;;21.00;99.90;;;;;;5015503;28;20445;-47
2021/08/10 08:36:15;;;;;;;3.80;3.00;;;21.00;99.90;;;;;;5015391;28;20473;-42
2021/08/10 08:38:41;;;;;;;3.37;3.00;;;21.00;99.90;;;;;;5015442;28;20449;-46
2021/08/10 08:41:09;;;;;;;3.53;3.20;;;21.10;99.90;;;;;;5015790;28;20445;-46
2021/08/10 08:43:37;;;;;;;4.63;2.93;;;21.10;99.90;;;;;;5015416;28;20452;-47
2021/08/10 08:46:04;;;;;;;5.90;3.60;;;21.20;99.90;;;;;;5015637;28;20815;-45
2021/08/10 08:48:32;;;;;;;7.03;3.63;;;21.30;99.90;;;;;;5015210;28;20457;-42
2021/08/10 08:51:01;;;;;;;5.30;3.00;;;21.40;99.90;;;;;;5015260;28;20507;-45
2021/08/10 08:53:30;;;;;;;5.83;3.00;;;21.50;99.90;;;;;;5015276;28;20477;-44
2021/08/10 08:55:56;;;;;;;3.10;2.50;;;21.70;99.90;;;;;;5015342;28;20491;-46
2021/08/10 08:58:23;;;;;;;4.97;3.03;;;21.80;99.90;;;;;;5015473;28;20810;-45
2021/08/10 09:00:50;;;;;;;3.67;3.37;;;22.00;99.90;;;;;;5014963;28;20787;-42
2021/08/10 09:03:16;;;;;;;5.93;3.40;;;22.30;99.90;;;;;;5015262;28;20507;-44
2021/08/10 09:05:47;;;;;;;5.00;2.93;;;22.60;99.90;;;;;;5015051;28;20563;-51
2021/08/10 09:08:31;;;;;;;5.27;4.00;;;22.70;99.90;;;;;;5015543;28;20457;-51
2021/08/10 09:11:01;;;;;;;3.30;2.97;;;22.70;99.90;;;;;;5015184;28;20823;-52
2021/08/10 09:13:28;;;;;;;5.70;3.23;;;22.70;99.90;;;;;;5015173;28;20456;-50
2021/08/10 09:15:59;;;;;;;4.47;3.30;;;22.60;99.90;;;;;;5016110;28;20503;-49
2021/08/10 09:18:25;;;;;;;5.27;3.30;;;22.50;99.90;;;;;;5016587;28;20457;-52
2021/08/10 09:21:04;;;;;;;10.20;5.13;;;22.40;99.90;;;;;;5016304;28;20445;-48
2021/08/10 09:23:41;;;;;;;9.70;4.33;;;22.40;99.90;;;;;;5015470;28;20433;-51
2021/08/10 09:26:08;;;;;;;3.63;2.60;;;22.40;99.90;;;;;;5014891;28;20853;-52
2021/08/10 09:28:36;;;;;;;5.37;3.10;;;22.40;99.90;;;;;;5014809;28;20563;-49
2021/08/10 09:31:31;;;;;;;4.90;3.70;;;22.40;99.90;;;;;;5015018;28;20449;-52
2021/08/10 09:33:59;;;;;;;2.97;2.70;;;22.60;99.90;;;;;;5013674;28;20531;-53
2021/08/10 09:36:27;;;;;;;8.67;3.00;;;23.20;99.90;;;;;;5014449;28;20584;-51
2021/08/10 09:38:56;;;;;;;9.40;2.90;;;23.80;99.90;;;;;;5014598;28;20441;-51
2021/08/10 09:41:23;;;;;;;3.97;3.00;;;24.70;99.90;;;;;;5013164;28;20791;-52
2021/08/10 09:43:50;;;;;;;6.10;3.67;;;25.50;99.90;;;;;;5014513;28;20453;-51
2021/08/10 09:46:18;;;;;;;7.03;3.60;;;25.90;99.90;;;;;;5014217;28;20469;-50
2021/08/10 09:48:53;;;;;;;4.43;3.53;;;26.10;99.90;;;;;;5014066;28;20460;-49
2021/08/10 09:51:22;;;;;;;4.50;3.30;;;26.10;99.90;;;;;;5014521;28;20444;-55
2021/08/10 09:54:01;;;;;;;5.63;3.83;;;25.60;99.90;;;;;;5014067;28;21080;-53
2021/08/10 09:56:44;;;;;;;6.93;3.73;;;25.50;99.90;;;;;;5014523;28;20433;-53
2021/08/10 09:59:11;;;;;;;10.20;4.93;;;25.90;99.90;;;;;;5006100;28;20442;-54
2021/08/10 10:01:40;;;;;;;4.67;3.33;;;26.00;99.90;;;;;;4993694;28;20464;-53
2021/08/10 10:04:19;;;;;;;10.40;3.47;;;25.70;99.90;;;;;;4994452;28;20453;-55
2021/08/10 10:06:48;;;;;;;5.47;3.90;;;25.10;99.90;;;;;;4994267;28;21008;-54
2021/08/10 10:09:17;;;;;;;5.10;3.87;;;24.50;99.90;;;;;;4994326;28;20465;-52
2021/08/10 10:11:46;;;;;;;5.10;3.80;;;24.30;99.90;;;;;;4994266;28;20456;-51
2021/08/10 10:14:14;;;;;;;4.73;3.47;;;24.20;99.90;;;;;;4994551;28;20509;-53
2021/08/10 10:16:43;;;;;;;5.23;3.10;;;24.20;99.90;;;;;;4994260;28;20512;-54
2021/08/10 10:19:12;;;;;;;4.00;3.60;;;24.40;99.90;;;;;;4994173;28;20457;-55
2021/08/10 10:21:41;;;;;;;3.90;2.83;;;24.70;99.90;;;;;;4994543;28;20453;-48
2021/08/10 10:24:10;;;;;;;3.60;3.30;;;24.80;99.90;;;;;;4994275;28;20481;-52
2021/08/10 10:26:40;;;;;;;5.60;3.00;;;24.90;99.90;;;;;;4994139;28;20548;-52
2021/08/10 10:29:09;;;;;;;4.60;3.20;;;24.90;99.90;;;;;;4994507;28;20434;-49
2021/08/10 10:31:36;;;;;;;5.33;2.90;;;24.70;99.90;;;;;;4994356;28;20458;-49
2021/08/10 10:34:05;;;;;;;5.80;3.10;;;24.50;99.90;;;;;;4994078;28;20446;-52
2021/08/10 10:36:32;;;;;;;5.63;3.27;;;24.20;99.90;;;;;;4994100;28;20449;-47
2021/08/10 10:39:00;;;;;;;3.50;3.10;;;24.00;99.90;;;;;;4993962;28;20461;-51
2021/08/10 10:41:34;;;;;;;3.17;2.87;;;23.80;99.90;;;;;;4994350;28;20450;-53
2021/08/10 10:44:03;;;;;;;5.60;3.40;;;23.70;99.90;;;;;;4994332;28;20792;-51
2021/08/10 10:46:33;;;;;;;5.80;4.80;;;23.60;99.90;;;;;;4996951;28;20498;-48
2021/08/10 10:49:04;;;;;;;6.17;3.87;;;23.40;99.90;;;;;;4998105;28;20456;-58
2021/08/10 10:51:33;;;;;;;6.13;4.30;;;23.40;99.90;;;;;;5008700;28;20461;-55
2021/08/10 10:54:25;;;;;;;8.83;3.20;;;23.40;99.90;;;;;;5017351;28;20448;-53
2021/08/10 10:56:53;;;;;;;3.83;3.20;;;23.40;99.90;;;;;;5017281;28;20432;-56
2021/08/10 10:59:33;;;;;;;6.70;4.30;;;23.30;99.90;;;;;;5017447;28;20452;-53
2021/08/10 11:02:21;;;;;;;3.57;3.17;;;23.20;99.90;;;;;;5017579;28;20503;-53
2021/08/10 11:05:26;;;;;;;3.63;3.33;;;23.00;99.90;;;;;;5017292;28;20452;-51
2021/08/10 11:07:54;;;;;;;2.90;2.57;;;22.90;99.90;;;;;;5016979;28;20480;-54
2021/08/10 11:10:39;;;;;;;5.93;3.80;;;22.80;99.90;;;;;;5017444;28;20456;-55
2021/08/10 11:13:27;;;;;;;3.47;3.17;;;22.70;99.90;;;;;;5017221;28;20460;-48
2021/08/10 11:15:57;;;;;;;6.03;3.40;;;22.70;99.90;;;;;;5016839;28;20448;-54
2021/08/10 11:18:25;;;;;;;5.00;3.40;;;22.60;99.90;;;;;;5016818;28;20968;-51
2021/08/10 11:20:55;;;;;;;8.63;2.90;;;22.50;99.90;;;;;;5017129;28;20445;-53
2021/08/10 11:23:36;;;;;;;4.07;2.57;;;22.60;99.90;;;;;;5016739;28;20468;-55
2021/08/10 11:26:38;;;;;;;5.70;2.70;;;22.80;99.90;;;;;;5016957;28;20878;-51
2021/08/10 11:29:06;;;;;;;5.50;3.00;;;23.00;99.90;;;;;;5017551;28;20462;-49
2021/08/10 11:31:42;;;;;;;3.70;3.20;;;23.50;99.90;;;;;;5017817;28;20457;-48
2021/08/10 11:34:34;;;;;;;8.10;3.67;;;23.90;99.90;;;;;;5017567;28;20938;-45
2021/08/10 11:37:27;;;;;;;7.13;2.70;;;24.10;99.90;;;;;;5016275;28;20515;-50
2021/08/10 11:40:02;;;;;;;8.33;4.77;;;24.20;99.90;;;;;;5016413;28;20449;-47
2021/08/10 11:42:29;;;;;;;5.13;3.33;;;24.30;99.90;;;;;;5017323;28;20496;-46
2021/08/10 11:44:56;;;;;;;4.37;2.83;;;24.30;99.90;;;;;;5016721;28;20444;-49
2021/08/10 11:47:24;;;;;;;5.13;2.67;;;24.40;99.90;;;;;;5016166;28;20508;-48
2021/08/10 11:49:54;;;;;;;6.07;3.97;;;24.40;99.90;;;;;;5016195;28;20459;-53
2021/08/10 11:52:21;;;;;;;3.40;2.60;;;24.50;99.90;;;;;;5016312;28;20447;-54
2021/08/10 11:54:57;;;;;;;4.17;2.57;;;24.40;99.90;;;;;;5016063;28;20449;-49
2021/08/10 11:57:24;;;;;;;8.10;3.50;;;24.50;99.90;;;;;;5016636;28;20437;-48
2021/08/10 12:00:14;;;;;;;7.00;3.33;;;24.80;99.90;;;;;;5017271;28;20479;-45
2021/08/10 12:02:46;;;;;;;3.73;3.13;;;25.00;99.90;;;;;;5017551;28;20499;-46
2021/08/10 12:05:16;;;;;;;5.20;3.20;;;25.00;99.90;;;;;;5016873;28;20445;-43
2021/08/10 12:07:50;;;;;;;4.33;2.27;;;25.00;99.90;;;;;;5015644;28;20493;-47
2021/08/10 12:10:27;;;;;;;4.70;2.70;;;24.90;99.90;;;;;;5015994;28;20455;-42
2021/08/10 12:12:54;;;;;;;6.60;3.33;;;24.80;99.90;;;;;;5015705;28;20930;-45
2021/08/10 12:15:39;;;;;;;4.43;3.40;;;24.90;99.90;;;;;;5015900;28;20445;-46
2021/08/10 12:18:08;;;;;;;3.33;2.23;;;25.10;99.90;;;;;;5016651;28;20536;-44
2021/08/10 12:20:35;;;;;;;4.47;3.00;;;25.40;99.90;;;;;;5015658;28;20515;-48
2021/08/10 12:23:03;;;;;;;3.77;2.97;;;25.50;99.90;;;;;;5015646;28;20453;-45
2021/08/10 12:25:36;;;;;;;4.00;3.40;;;25.50;99.90;;;;;;5015675;28;20461;-43
2021/08/10 12:28:08;;;;;;;4.60;2.57;;;25.30;99.90;;;;;;5015115;28;21038;-44
2021/08/10 12:30:37;;;;;;;3.03;2.73;;;25.10;99.90;;;;;;5016781;28;20441;-42
2021/08/10 12:33:20;;;;;;;7.43;2.80;;;25.00;99.90;;;;;;5016972;28;20459;-41
2021/08/10 12:36:02;;;;;;;4.60;3.33;;;24.90;99.90;;;;;;5016889;28;20463;-42
2021/08/10 12:38:29;;;;;;;6.20;4.63;;;25.00;99.90;;;;;;5017180;28;20480;-42
2021/08/10 12:40:57;;;;;;;4.10;2.73;;;25.00;99.90;;;;;;5016845;28;20464;-44
2021/08/10 12:43:26;;;;;;;3.03;2.40;;;25.10;99.90;;;;;;5017553;28;20465;-42
2021/08/10 12:45:53;;;;;;;6.20;2.77;;;25.30;99.90;;;;;;5016739;28;20476;-43
2021/08/10 12:48:30;;;;;;;5.10;3.93;;;25.30;99.90;;;;;;5016792;28;20452;-47
2021/08/10 12:51:00;;;;;;;5.47;3.03;;;25.20;99.90;;;;;;5016718;28;20460;-46
2021/08/10 12:53:29;;;;;;;5.23;3.90;;;25.20;99.90;;;;;;5016747;28;20764;-47
2021/08/10 12:55:58;;;;;;;7.47;3.27;;;25.10;99.90;;;;;;5018760;28;20480;-48
2021/08/10 12:58:26;;;;;;;4.77;3.40;;;24.90;99.90;;;;;;5015841;28;20910;-47